CPX415 Details

Departure: Chicago/Rockford International Airport (KRFD)
Arrival: Theodore Francis Green State Airport (KPVD) at N/A
Route: QUOTE JOT J146 GIJ J554 JHW TRAAD HNK WIPOR3
Notes:


Current Weather Information
KRFD 230754Z 22008KT 10SM CLR 06/M01 A2983 RMK AO2 SLP106 T00561006
KPVD 230809Z AUTO 00000KT 3/4SM R05/3500V4500FT BR VV003 14/14 A2975 RMK AO2 T01390139